createdAt,value
2019-05-07T00:02:22.587Z,9.68
2019-05-07T00:04:54.373Z,9.71
2019-05-07T00:07:26.234Z,9.74
2019-05-07T00:09:57.811Z,9.77
2019-05-07T00:12:29.391Z,9.73
2019-05-07T00:15:04.391Z,9.63
2019-05-07T00:17:35.627Z,9.58
2019-05-07T00:20:07.608Z,9.31
2019-05-07T00:22:39.307Z,9.25
2019-05-07T00:25:12.414Z,9.24
2019-05-07T00:27:44.289Z,9.22
2019-05-07T00:30:16.311Z,9.22
2019-05-07T00:32:47.856Z,9.32
2019-05-07T00:35:22.657Z,9.34
2019-05-07T00:38:02.437Z,9.26
2019-05-07T00:40:42.554Z,9.22
2019-05-07T00:43:23.440Z,9.14
2019-05-07T00:46:08.299Z,9.19
2019-05-07T00:48:42.295Z,9.22
2019-05-07T00:51:27.048Z,9.12
2019-05-07T00:53:59.012Z,9.07
2019-05-07T00:56:33.042Z,8.92
2019-05-07T00:59:04.170Z,8.79
2019-05-07T01:01:36.334Z,8.74
2019-05-07T01:04:08.052Z,8.85
2019-05-07T01:06:39.670Z,8.91
2019-05-07T01:09:12.353Z,8.99
2019-05-07T01:11:44.807Z,9.02
2019-05-07T01:14:16.415Z,9.07
2019-05-07T01:16:50.151Z,9.07
2019-05-07T01:19:23.867Z,9.09
2019-05-07T01:21:55.886Z,9.07
2019-05-07T01:24:27.715Z,9.12
2019-05-07T01:26:59.357Z,9.17
2019-05-07T01:29:32.808Z,9.14
2019-05-07T01:32:12.775Z,9.12
2019-05-07T01:34:55.958Z,9.11
2019-05-07T01:37:28.255Z,9.13
2019-05-07T01:39:59.845Z,9.15
2019-05-07T01:42:32.676Z,9.14
2019-05-07T01:45:05.640Z,9.04
2019-05-07T01:47:38.022Z,8.94
2019-05-07T01:50:09.951Z,8.90
2019-05-07T01:52:42.696Z,8.94
2019-05-07T01:55:14.693Z,8.92
2019-05-07T01:57:46.578Z,8.92
2019-05-07T02:00:38.760Z,8.99
2019-05-07T02:03:17.518Z,9.02
2019-05-07T02:06:08.192Z,9.05
2019-05-07T02:08:53.036Z,9.07
2019-05-07T02:11:32.682Z,9.04
2019-05-07T02:14:04.664Z,9.08
2019-05-07T02:16:36.371Z,9.06
2019-05-07T02:19:07.943Z,8.99
2019-05-07T02:21:39.489Z,8.99
2019-05-07T02:24:12.576Z,8.97
2019-05-07T02:26:44.453Z,9.03
2019-05-07T02:29:16.417Z,9.02
2019-05-07T02:31:47.993Z,9.07
2019-05-07T02:34:23.214Z,9.05
2019-05-07T02:36:54.005Z,8.91
2019-05-07T02:39:37.674Z,8.91
2019-05-07T02:42:09.224Z,8.95
2019-05-07T02:45:05.046Z,9.06
2019-05-07T02:47:36.789Z,9.11
2019-05-07T02:50:15.241Z,9.12
2019-05-07T02:53:04.573Z,9.15
2019-05-07T02:55:43.633Z,9.19
2019-05-07T02:58:17.083Z,9.15
2019-05-07T03:00:52.924Z,9.08
2019-05-07T03:03:24.693Z,9.18
2019-05-07T03:05:56.446Z,9.26
2019-05-07T03:08:32.840Z,9.27
2019-05-07T03:11:03.618Z,9.20
2019-05-07T03:13:35.388Z,9.24
2019-05-07T03:16:06.954Z,9.25
2019-05-07T03:18:38.571Z,9.26
2019-05-07T03:21:16.937Z,9.28
2019-05-07T03:24:10.231Z,9.33
2019-05-07T03:26:45.649Z,9.42
2019-05-07T03:29:23.936Z,9.44
2019-05-07T03:31:57.874Z,9.50
2019-05-07T03:34:57.839Z,9.61
2019-05-07T03:37:33.213Z,9.66
2019-05-07T03:40:03.974Z,9.72
2019-05-07T03:42:37.113Z,9.74
2019-05-07T03:45:37.070Z,9.79
2019-05-07T03:48:14.413Z,9.81
2019-05-07T03:50:46.135Z,9.90
2019-05-07T03:53:17.877Z,9.98
2019-05-07T03:55:49.352Z,9.98
2019-05-07T03:58:23.527Z,9.83
2019-05-07T04:00:55.647Z,9.67
2019-05-07T04:03:27.682Z,9.58
2019-05-07T04:05:59.506Z,9.50
2019-05-07T04:08:33.448Z,9.32
2019-05-07T04:11:04.363Z,9.15
2019-05-07T04:13:36.010Z,9.07
2019-05-07T04:16:08.361Z,9.10
2019-05-07T04:18:39.953Z,9.04
2019-05-07T04:21:13.977Z,9.16
2019-05-07T04:23:45.415Z,9.24
2019-05-07T04:26:26.755Z,9.18
2019-05-07T04:29:05.755Z,9.09
2019-05-07T04:31:43.609Z,8.96
2019-05-07T04:34:23.773Z,9.04
2019-05-07T04:36:55.965Z,8.98
2019-05-07T04:39:27.659Z,9.08
2019-05-07T04:41:59.833Z,8.86
2019-05-07T04:44:33.209Z,8.89
2019-05-07T04:47:08.247Z,8.90
2019-05-07T04:49:39.892Z,8.88
2019-05-07T04:52:15.683Z,8.75
2019-05-07T04:54:47.217Z,8.79
2019-05-07T04:57:27.844Z,8.89
2019-05-07T05:00:03.303Z,8.92
2019-05-07T05:03:03.149Z,8.73
2019-05-07T05:05:33.630Z,8.84
2019-05-07T05:08:07.076Z,8.77
2019-05-07T05:10:38.697Z,8.70
2019-05-07T05:13:12.874Z,8.75
2019-05-07T05:15:44.451Z,8.70
2019-05-07T05:18:17.029Z,8.67
2019-05-07T05:21:09.343Z,8.68
2019-05-07T05:23:49.371Z,8.75
2019-05-07T05:26:21.858Z,9.12
2019-05-07T05:28:53.861Z,9.29
2019-05-07T05:31:25.423Z,9.23
2019-05-07T05:33:56.926Z,9.27
2019-05-07T05:36:30.099Z,9.10
2019-05-07T05:39:02.593Z,9.13
2019-05-07T05:41:37.802Z,9.30
2019-05-07T05:44:13.680Z,9.18
2019-05-07T05:46:45.520Z,9.49
2019-05-07T05:49:17.748Z,9.48
2019-05-07T05:51:59.177Z,9.24
2019-05-07T05:54:42.491Z,9.16
2019-05-07T05:57:22.863Z,9.20
2019-05-07T06:00:12.892Z,9.20
2019-05-07T06:03:02.598Z,9.26
2019-05-07T06:05:44.973Z,9.44
2019-05-07T06:08:32.929Z,9.70
2019-05-07T06:11:11.854Z,9.96
2019-05-07T06:14:07.158Z,9.92
2019-05-07T06:16:42.993Z,9.91
2019-05-07T06:19:23.528Z,9.94
2019-05-07T06:22:16.735Z,10.01
2019-05-07T06:24:59.720Z,10.11
2019-05-07T06:27:32.532Z,10.27
2019-05-07T06:30:05.012Z,10.32
2019-05-07T06:32:36.990Z,10.27
2019-05-07T06:35:12.302Z,10.22
2019-05-07T06:37:45.070Z,10.40
2019-05-07T06:40:34.963Z,10.44
2019-05-07T06:43:16.474Z,10.44
2019-05-07T06:45:51.907Z,10.34
2019-05-07T06:48:37.715Z,10.21
2019-05-07T06:51:00.294Z,10.33
2019-05-07T06:53:43.720Z,10.38
2019-05-07T06:56:15.547Z,10.46
2019-05-07T06:59:12.887Z,10.64
2019-05-07T07:02:18.445Z,10.56
2019-05-07T07:05:08.997Z,10.56
2019-05-07T07:07:47.429Z,10.93
2019-05-07T07:10:26.962Z,10.87
2019-05-07T07:12:58.834Z,10.92
2019-05-07T07:15:32.082Z,10.75
2019-05-07T07:18:03.769Z,10.59
2019-05-07T07:20:35.418Z,10.71
2019-05-07T07:23:07.075Z,10.75
2019-05-07T07:25:38.509Z,10.66
2019-05-07T07:28:12.159Z,11.00
2019-05-07T07:31:02.333Z,11.03
2019-05-07T07:33:39.507Z,11.18
2019-05-07T07:36:11.999Z,11.27
2019-05-07T07:38:45.234Z,11.39
2019-05-07T07:41:32.773Z,11.70
2019-05-07T07:44:04.422Z,11.69
2019-05-07T07:46:36.354Z,11.78
2019-05-07T07:49:14.035Z,12.56
2019-05-07T07:51:44.666Z,12.55
2019-05-07T07:54:14.282Z,12.36
2019-05-07T07:57:12.461Z,12.58
2019-05-07T08:00:06.920Z,13.03
2019-05-07T08:03:06.621Z,13.21
2019-05-07T08:05:38.390Z,13.41
2019-05-07T08:08:09.846Z,13.73
2019-05-07T08:10:42.613Z,13.64
2019-05-07T08:13:14.233Z,13.81
2019-05-07T08:15:46.092Z,13.88
2019-05-07T08:18:17.682Z,13.61
2019-05-07T08:20:49.461Z,13.82
2019-05-07T08:23:22.610Z,13.93
2019-05-07T08:25:54.621Z,14.04
2019-05-07T08:28:26.998Z,13.91
2019-05-07T08:31:17.370Z,13.73
2019-05-07T08:33:56.396Z,13.82
2019-05-07T08:36:28.137Z,13.86
2019-05-07T08:38:59.747Z,13.73
2019-05-07T08:41:32.013Z,14.04
2019-05-07T08:44:15.264Z,14.52
2019-05-07T08:46:58.406Z,14.48
2019-05-07T08:49:37.000Z,14.27
2019-05-07T08:52:03.971Z,14.22
2019-05-07T08:54:36.174Z,14.35
2019-05-07T08:57:08.092Z,14.37
2019-05-07T08:59:39.646Z,14.58
2019-05-07T09:02:12.595Z,14.62
2019-05-07T09:04:44.518Z,14.32
2019-05-07T09:07:16.066Z,14.51
2019-05-07T09:09:48.308Z,14.55
2019-05-07T09:12:19.933Z,14.50
2019-05-07T09:14:52.938Z,14.38
2019-05-07T09:17:25.743Z,14.42
2019-05-07T09:19:57.521Z,14.57
2019-05-07T09:22:29.348Z,14.55
2019-05-07T09:25:03.153Z,14.48
2019-05-07T09:27:42.502Z,14.38
2019-05-07T09:30:22.632Z,14.36
2019-05-07T09:33:02.479Z,14.40
2019-05-07T09:35:49.173Z,14.38
2019-05-07T09:38:22.485Z,14.28
2019-05-07T09:40:56.837Z,14.17
2019-05-07T09:43:27.401Z,14.12
2019-05-07T09:45:59.284Z,14.14
2019-05-07T09:48:33.605Z,14.15
2019-05-07T09:51:04.500Z,14.20
2019-05-07T09:53:36.357Z,14.28
2019-05-07T09:56:07.890Z,14.35
2019-05-07T09:58:39.729Z,14.34
2019-05-07T10:01:12.591Z,14.51
2019-05-07T10:03:44.594Z,14.66
2019-05-07T10:06:16.321Z,14.79
2019-05-07T10:08:47.865Z,15.22
2019-05-07T10:11:28.445Z,15.51
2019-05-07T10:14:04.917Z,15.60
2019-05-07T10:16:55.544Z,16.03
2019-05-07T10:19:27.212Z,16.58
2019-05-07T10:21:58.785Z,16.37
2019-05-07T10:24:30.492Z,16.19
2019-05-07T10:27:02.834Z,16.38
2019-05-07T10:29:34.722Z,16.24
2019-05-07T10:32:06.582Z,16.15
2019-05-07T10:34:38.304Z,16.18
2019-05-07T10:37:12.083Z,16.04
2019-05-07T10:39:43.866Z,15.93
2019-05-07T10:42:15.800Z,15.76
2019-05-07T10:45:04.930Z,15.62
2019-05-07T10:48:07.678Z,15.25
2019-05-07T10:50:42.495Z,15.14
2019-05-07T10:53:14.213Z,15.26
2019-05-07T10:55:45.994Z,15.00
2019-05-07T10:58:17.609Z,15.04
2019-05-07T11:00:49.688Z,15.06
2019-05-07T11:03:24.309Z,14.99
2019-05-07T11:05:55.986Z,14.80
2019-05-07T11:08:27.712Z,14.61
2019-05-07T11:10:59.252Z,14.47
2019-05-07T11:13:32.192Z,14.48
2019-05-07T11:16:08.245Z,14.58
2019-05-07T11:18:45.936Z,14.55
2019-05-07T11:21:22.630Z,14.70
2019-05-07T11:23:54.193Z,14.73
2019-05-07T11:26:25.757Z,14.66
2019-05-07T11:28:57.474Z,14.75
2019-05-07T11:31:29.915Z,14.80
2019-05-07T11:34:02.944Z,14.92
2019-05-07T11:36:34.629Z,15.10
2019-05-07T11:39:07.964Z,15.23
2019-05-07T11:41:59.085Z,15.08
2019-05-07T11:44:32.077Z,15.14
2019-05-07T11:47:25.858Z,15.23
2019-05-07T11:50:15.563Z,15.50
2019-05-07T11:52:56.011Z,15.95
2019-05-07T11:55:27.739Z,16.19
2019-05-07T11:57:59.599Z,16.19
2019-05-07T12:00:42.946Z,16.20
2019-05-07T12:03:15.651Z,16.28
2019-05-07T12:05:47.497Z,16.33
2019-05-07T12:08:19.084Z,15.96
2019-05-07T12:10:51.858Z,15.78
2019-05-07T12:13:23.717Z,15.93
2019-05-07T12:15:55.518Z,15.80
2019-05-07T12:18:27.332Z,15.53
2019-05-07T12:20:59.140Z,15.47
2019-05-07T12:23:33.004Z,15.49
2019-05-07T12:26:04.315Z,15.36
2019-05-07T12:28:35.846Z,15.23
2019-05-07T12:31:26.443Z,15.09
2019-05-07T12:34:02.856Z,14.86
2019-05-07T12:36:34.385Z,14.74
2019-05-07T12:39:09.334Z,14.65
2019-05-07T12:41:42.621Z,14.57
2019-05-07T12:44:14.209Z,14.55
2019-05-07T12:46:45.704Z,14.57
2019-05-07T12:49:17.561Z,14.53
2019-05-07T12:52:07.959Z,14.45
2019-05-07T12:55:03.285Z,14.33
2019-05-07T12:57:34.874Z,14.30
2019-05-07T13:00:25.279Z,14.32
2019-05-07T13:03:12.618Z,14.35
2019-05-07T13:05:43.991Z,14.41
2019-05-07T13:08:16.721Z,14.35
2019-05-07T13:10:48.437Z,14.25
2019-05-07T13:13:20.045Z,14.28
2019-05-07T13:15:54.689Z,14.31
2019-05-07T13:18:26.406Z,14.29
2019-05-07T13:20:58.298Z,14.40
2019-05-07T13:23:31.838Z,14.43
2019-05-07T13:26:03.663Z,14.56
2019-05-07T13:28:35.591Z,14.64
2019-05-07T13:31:07.158Z,14.60
2019-05-07T13:33:42.154Z,14.64
2019-05-07T13:36:14.173Z,14.71
2019-05-07T13:39:03.375Z,14.81
2019-05-07T13:41:54.180Z,15.04
2019-05-07T13:44:52.384Z,15.09
2019-05-07T13:47:36.395Z,15.22
2019-05-07T13:50:11.883Z,15.26
2019-05-07T13:52:46.220Z,15.43
2019-05-07T13:55:18.094Z,15.55
2019-05-07T13:57:49.914Z,15.64
2019-05-07T14:00:37.001Z,15.70
2019-05-07T14:03:08.902Z,15.98
2019-05-07T14:05:42.631Z,16.06
2019-05-07T14:08:14.506Z,16.19
2019-05-07T14:10:46.588Z,16.26
2019-05-07T14:13:18.243Z,16.32
2019-05-07T14:16:09.455Z,16.36
2019-05-07T14:18:41.625Z,16.24
2019-05-07T14:21:13.289Z,16.28
2019-05-07T14:23:45.791Z,16.31
2019-05-07T14:26:17.631Z,16.22
2019-05-07T14:28:49.374Z,16.12
2019-05-07T14:31:21.568Z,16.20
2019-05-07T14:34:02.876Z,16.27
2019-05-07T14:36:47.330Z,16.15
2019-05-07T14:39:18.867Z,16.08
2019-05-07T14:41:52.546Z,16.13
2019-05-07T14:44:26.268Z,16.28
2019-05-07T14:46:58.036Z,16.52
2019-05-07T14:49:31.756Z,16.58
2019-05-07T14:52:03.895Z,16.55
2019-05-07T14:54:37.081Z,16.64
2019-05-07T14:57:08.886Z,16.63
2019-05-07T14:59:42.678Z,16.61
2019-05-07T15:02:15.361Z,16.63
2019-05-07T15:04:48.387Z,16.76
2019-05-07T15:07:22.429Z,16.68
2019-05-07T15:09:54.240Z,16.62
2019-05-07T15:12:26.029Z,16.64
2019-05-07T15:14:58.179Z,16.58
2019-05-07T15:17:36.118Z,16.34
2019-05-07T15:20:08.171Z,15.78
2019-05-07T15:22:49.867Z,16.12
2019-05-07T15:25:19.973Z,16.26
2019-05-07T15:27:52.661Z,16.29
2019-05-07T15:30:27.726Z,15.96
2019-05-07T15:32:59.628Z,16.03
2019-05-07T15:35:31.985Z,16.25
2019-05-07T15:38:04.435Z,16.37
2019-05-07T15:40:36.252Z,16.37
2019-05-07T15:43:08.011Z,16.44
2019-05-07T15:45:39.641Z,16.44
2019-05-07T15:48:12.675Z,16.53
2019-05-07T15:50:45.000Z,16.62
2019-05-07T15:53:35.893Z,16.68
2019-05-07T15:56:08.454Z,16.61
2019-05-07T15:58:42.012Z,16.61
2019-05-07T16:01:15.552Z,16.64
2019-05-07T16:03:47.448Z,16.61
2019-05-07T16:06:21.887Z,16.50
2019-05-07T16:08:56.657Z,16.31
2019-05-07T16:11:28.513Z,15.99
2019-05-07T16:14:17.894Z,15.99
2019-05-07T16:16:51.850Z,15.74
2019-05-07T16:19:27.668Z,15.87
2019-05-07T16:22:03.944Z,15.92
2019-05-07T16:24:35.735Z,15.92
2019-05-07T16:27:07.600Z,16.08
2019-05-07T16:29:39.274Z,16.24
2019-05-07T16:32:10.884Z,16.33
2019-05-07T16:34:43.069Z,16.30
2019-05-07T16:37:15.069Z,16.28
2019-05-07T16:39:46.687Z,16.30
2019-05-07T16:42:18.384Z,16.34
2019-05-07T16:44:52.166Z,16.40
2019-05-07T16:47:23.266Z,16.25
2019-05-07T16:49:55.019Z,16.34
2019-05-07T16:52:27.309Z,16.26
2019-05-07T16:54:59.714Z,16.00
2019-05-07T16:57:57.300Z,16.06
2019-05-07T17:00:35.451Z,16.05
2019-05-07T17:03:22.449Z,16.09
2019-05-07T17:05:54.548Z,16.12
2019-05-07T17:08:35.863Z,16.20
2019-05-07T17:11:07.638Z,16.02
2019-05-07T17:13:39.582Z,16.08
2019-05-07T17:16:12.334Z,16.00
2019-05-07T17:18:44.359Z,16.11
2019-05-07T17:21:16.250Z,16.07
2019-05-07T17:23:48.259Z,16.10
2019-05-07T17:26:20.094Z,16.13
2019-05-07T17:28:52.178Z,16.17
2019-05-07T17:31:25.437Z,16.18
2019-05-07T17:33:57.373Z,16.17
2019-05-07T17:36:29.116Z,16.19
2019-05-07T17:39:02.689Z,16.19
2019-05-07T17:41:36.202Z,16.20
2019-05-07T17:44:07.855Z,16.20
2019-05-07T17:46:39.752Z,16.21
2019-05-07T17:49:11.977Z,16.13
2019-05-07T17:51:45.126Z,16.17
2019-05-07T17:54:18.322Z,16.18
2019-05-07T17:56:50.218Z,16.19
2019-05-07T17:59:22.162Z,16.19
2019-05-07T18:02:12.859Z,16.14
2019-05-07T18:04:51.266Z,16.10
2019-05-07T18:07:21.581Z,15.94
2019-05-07T18:09:53.362Z,15.90
2019-05-07T18:12:25.045Z,15.66
2019-05-07T18:14:56.816Z,15.35
2019-05-07T18:17:36.027Z,14.97
2019-05-07T18:20:09.611Z,14.75
2019-05-07T18:22:41.600Z,14.60
2019-05-07T18:25:13.305Z,14.37
2019-05-07T18:27:44.987Z,13.97
2019-05-07T18:30:17.680Z,13.92
2019-05-07T18:32:54.899Z,13.91
2019-05-07T18:35:26.624Z,14.00
2019-05-07T18:37:58.355Z,14.06
2019-05-07T18:40:30.721Z,14.06
2019-05-07T18:43:03.068Z,13.97
2019-05-07T18:45:35.191Z,14.06
2019-05-07T18:48:07.333Z,13.72
2019-05-07T18:50:38.999Z,13.68
2019-05-07T18:53:12.189Z,13.48
2019-05-07T18:55:44.372Z,13.55
2019-05-07T18:58:17.982Z,13.37
2019-05-07T19:00:55.151Z,13.28
2019-05-07T19:03:27.161Z,13.17
2019-05-07T19:05:59.201Z,13.09
2019-05-07T19:08:32.665Z,13.05
2019-05-07T19:11:05.824Z,13.16
2019-05-07T19:13:41.764Z,13.03
2019-05-07T19:16:12.814Z,13.04
2019-05-07T19:18:45.224Z,13.05
2019-05-07T19:21:16.928Z,12.98
2019-05-07T19:23:48.815Z,13.10
2019-05-07T19:26:22.330Z,13.10
2019-05-07T19:28:54.411Z,13.09
2019-05-07T19:31:26.382Z,13.19
2019-05-07T19:33:58.261Z,13.19
2019-05-07T19:36:32.060Z,13.15
2019-05-07T19:39:03.992Z,13.07
2019-05-07T19:41:36.849Z,13.05
2019-05-07T19:44:08.469Z,13.02
2019-05-07T19:46:40.268Z,12.93
2019-05-07T19:49:12.874Z,12.80
2019-05-07T19:51:44.476Z,12.82
2019-05-07T19:54:16.078Z,12.80
2019-05-07T19:56:51.904Z,12.75
2019-05-07T19:59:23.724Z,12.79
2019-05-07T20:01:59.447Z,12.72
2019-05-07T20:04:32.116Z,12.65
2019-05-07T20:07:03.745Z,12.57
2019-05-07T20:09:37.459Z,12.62
2019-05-07T20:12:09.254Z,12.65
2019-05-07T20:14:42.263Z,12.72
2019-05-07T20:17:13.858Z,12.70
2019-05-07T20:19:45.547Z,12.75
2019-05-07T20:22:17.264Z,12.79
2019-05-07T20:24:48.952Z,12.84
2019-05-07T20:27:20.543Z,12.83
2019-05-07T20:29:52.483Z,12.83
2019-05-07T20:32:24.056Z,12.79
2019-05-07T20:34:56.232Z,12.77
2019-05-07T20:37:28.351Z,12.78
2019-05-07T20:40:02.829Z,12.81
2019-05-07T20:42:34.822Z,12.80
2019-05-07T20:45:07.507Z,12.73
2019-05-07T20:47:39.112Z,12.74
2019-05-07T20:50:12.717Z,12.73
2019-05-07T20:52:44.467Z,12.72
2019-05-07T20:55:30.689Z,12.71
2019-05-07T20:57:59.152Z,12.66
2019-05-07T21:00:32.617Z,12.68
2019-05-07T21:03:20.259Z,12.71
2019-05-07T21:05:53.502Z,12.54
2019-05-07T21:08:25.324Z,12.37
2019-05-07T21:10:57.298Z,12.40
2019-05-07T21:13:33.978Z,12.39
2019-05-07T21:16:03.327Z,12.31
2019-05-07T21:18:35.191Z,12.32
2019-05-07T21:21:06.807Z,12.21
2019-05-07T21:23:38.977Z,12.22
2019-05-07T21:26:12.841Z,12.19
2019-05-07T21:28:44.080Z,12.17
2019-05-07T21:31:15.884Z,12.19
2019-05-07T21:33:59.584Z,12.16
2019-05-07T21:36:32.422Z,12.18
2019-05-07T21:39:06.558Z,12.14
2019-05-07T21:41:38.415Z,12.19
2019-05-07T21:44:09.974Z,12.15
2019-05-07T21:46:42.571Z,12.11
2019-05-07T21:49:14.431Z,12.22
2019-05-07T21:51:46.061Z,12.14
2019-05-07T21:54:26.776Z,12.18
2019-05-07T21:57:22.047Z,12.08
2019-05-07T22:00:13.566Z,12.14
2019-05-07T22:02:46.746Z,12.18
2019-05-07T22:05:18.596Z,12.07
2019-05-07T22:07:54.178Z,12.13
2019-05-07T22:10:23.791Z,12.13
2019-05-07T22:12:55.264Z,12.18
2019-05-07T22:15:26.834Z,12.20
2019-05-07T22:17:58.396Z,12.19
2019-05-07T22:20:31.987Z,12.22
2019-05-07T22:23:03.834Z,12.17
2019-05-07T22:25:35.411Z,12.01
2019-05-07T22:28:08.054Z,12.03
2019-05-07T22:30:56.449Z,12.00
2019-05-07T22:33:47.013Z,11.84
2019-05-07T22:36:22.018Z,11.92
2019-05-07T22:39:01.848Z,11.79
2019-05-07T22:41:35.130Z,11.70
2019-05-07T22:44:07.279Z,11.77
2019-05-07T22:46:39.079Z,11.65
2019-05-07T22:49:13.347Z,11.68
2019-05-07T22:51:44.979Z,11.59
2019-05-07T22:54:16.925Z,11.63
2019-05-07T22:57:05.964Z,11.57
2019-05-07T22:59:37.558Z,11.54
2019-05-07T23:02:09.312Z,11.50
2019-05-07T23:04:43.096Z,11.53
2019-05-07T23:07:14.367Z,11.44
2019-05-07T23:09:46.275Z,11.50
2019-05-07T23:12:17.829Z,11.46
2019-05-07T23:14:53.698Z,11.51
2019-05-07T23:17:25.488Z,11.62
2019-05-07T23:19:57.276Z,11.51
2019-05-07T23:22:28.823Z,11.45
2019-05-07T23:25:00.501Z,11.52
2019-05-07T23:27:32.567Z,11.59
2019-05-07T23:30:06.031Z,11.52
2019-05-07T23:32:37.904Z,11.55
2019-05-07T23:35:10.175Z,11.48
2019-05-07T23:37:42.161Z,11.56
2019-05-07T23:40:22.974Z,11.53
2019-05-07T23:42:56.247Z,11.44
2019-05-07T23:45:27.861Z,11.44
2019-05-07T23:47:59.434Z,11.42
2019-05-07T23:50:32.385Z,11.39
2019-05-07T23:53:04.336Z,11.35
2019-05-07T23:55:36.053Z,11.37
2019-05-07T23:58:08.102Z,11.35
